Aviation Digital Data Service (ADDS)

Output produced by METARs form (0640 UTC 24 March 2019)
found at http://www.aviationweather.gov/metar/data/
 
MPPA 240300Z 02010KT 9999 FEW018 26/21 Q1014
TAF MPPA 232200Z 2400/2506 02014KT 9999 SCT017 
     BECMG 2404/2408 02010KT FEW017
       
MPDA 240300Z 06005KT 9999 FEW030 28/21 Q1011
TAF MPDA 232200Z 2400/2412 18010KT 9999 FEW025 
     BECMG 2404/2408 20008KT FEW018
       
MPMG 240300Z 34009KT 9999 FEW020 26/21 Q1014 NOSIG
TAF MPMG 232200Z 2400/2412 35012KT 9999 FEW020 
     BECMG 2404/2408 33008KT FEW017
       
MPTO 240600Z 31004KT 9999 SCT017 SCT090 26/21 Q1014 NOSIG
TAF MPTO 240500Z 2406/2512 32005KT 9999 FEW018 SCT090 
     TEMPO 2408/2412 01006KT 
     BECMG 2418/2422 02014KT FEW018 
     TEMPO 2422/2502 02006KT